Jasper, NY (14855)

9:12 AM EDT on August 25, 2016 (GMT -0400)
Camp Mud Hollow | | Change Station

Elev 1155 ft 42.23 °N, 77.42 °W | Updated 12 minutes ago

Mostly Cloudy
Mostly Cloudy
69.3 °F
Feels Like 69.3 °F
N
0.0
Wind Variable Wind from NE

Today
High -- | Low -- °F
--% Chance of Precip.
Yesterday
High -- | Low -- °F
Precip. -- in
Pressure 30.06 in
Visibility 8.0 miles
Clouds Mostly Cloudy 900 ft
Mostly Cloudy 7500 ft
Mostly Cloudy 12000 ft
Dew Point 68 °F
Humidity 94%
Rainfall 0.05 in
Snow Depth Not available.
6:28 AM 7:54 PM
Last Quarter, 46% visible
SPECI KELZ 251305Z AUTO 23005KT 8SM BKN009 BKN075 BKN120 22/19 A3006 RMK AO2 CIG 007V012 T02170194
Pressure 30.06 in
Visibility 8.0 miles
Clouds Mostly Cloudy 900 ft
Mostly Cloudy 7500 ft
Mostly Cloudy 12000 ft
Dew Point 68 °F
Humidity 94%
Rainfall 0.05 in
Snow Depth Not available.
6:28 AM 7:54 PM
Last Quarter, 46% visible
SPECI KELZ 251305Z AUTO 23005KT 8SM BKN009 BKN075 BKN120 22/19 A3006 RMK AO2 CIG 007V012 T02170194

10-Day Weather Forecast

Almanac

Astronomy

Aug. 25, 2016 Rise Set
Actual Time
Civil Twilight
Nautical Twilight
Astronomical Twilight
Moon
Length of Visible Light
Length of Day
Tomorrow will be .
, % of the Moon is Illuminated

Today's Extremes

State Highs State Lows

Community

WunderPhotos

Upload Photos

1,934,842 photos uploaded!

WunderBlog® & News

Nearby

Air Quality

  Air Quality AQ Index Pollutant
Not available.

Snow Depth

Station Depth Elevation

Earthquake Activity

City Distance Mag. Time & Date
Minimum magnitude displayed is 2.5.

Coastal Water Temperatures

Place Temperature

Stations

Nearby Weather Stations

Station Location Temp. Windchill Dew Point Humidity Wind Precip. Elev Updated Type
                   

Watches & Warnings

There are currently no watches in effect.